sensor_id;sensor_type;location;lat;lon;timestamp;pressure;altitude;pressure_sealevel;temperature;humidity
49461;BME280;35355;49.198;-0.368;2023-04-29T00:00:26;101196.25;;;14.08;69.51
49461;BME280;35355;49.198;-0.368;2023-04-29T00:02:51;101202.56;;;14.08;69.87
49461;BME280;35355;49.198;-0.368;2023-04-29T00:05:17;101207.25;;;14.08;70.04
49461;BME280;35355;49.198;-0.368;2023-04-29T00:07:42;101210.53;;;14.10;69.87
49461;BME280;35355;49.198;-0.368;2023-04-29T00:10:08;101208.88;;;14.14;69.96
49461;BME280;35355;49.198;-0.368;2023-04-29T00:12:33;101206.44;;;14.17;69.96
49461;BME280;35355;49.198;-0.368;2023-04-29T00:14:59;101218.50;;;14.21;70.00
49461;BME280;35355;49.198;-0.368;2023-04-29T00:17:26;101213.56;;;14.24;69.70
49461;BME280;35355;49.198;-0.368;2023-04-29T00:19:52;101206.97;;;14.25;69.97
49461;BME280;35355;49.198;-0.368;2023-04-29T00:22:18;101197.66;;;14.20;70.04
49461;BME280;35355;49.198;-0.368;2023-04-29T00:24:46;101208.06;;;14.24;69.86
49461;BME280;35355;49.198;-0.368;2023-04-29T00:27:11;101212.72;;;14.23;69.73
49461;BME280;35355;49.198;-0.368;2023-04-29T00:29:36;101211.38;;;14.20;69.81
49461;BME280;35355;49.198;-0.368;2023-04-29T00:32:02;101216.88;;;14.20;69.93
49461;BME280;35355;49.198;-0.368;2023-04-29T00:34:28;101206.16;;;14.19;69.97
49461;BME280;35355;49.198;-0.368;2023-04-29T00:36:53;101207.25;;;14.18;69.95
49461;BME280;35355;49.198;-0.368;2023-04-29T00:39:18;101205.31;;;14.18;70.00
49461;BME280;35355;49.198;-0.368;2023-04-29T00:41:44;101202.03;;;14.16;69.75
49461;BME280;35355;49.198;-0.368;2023-04-29T00:44:09;101202.03;;;14.16;70.00
49461;BME280;35355;49.198;-0.368;2023-04-29T00:46:35;101198.19;;;14.12;70.08
49461;BME280;35355;49.198;-0.368;2023-04-29T00:49:01;101195.44;;;14.12;69.94
49461;BME280;35355;49.198;-0.368;2023-04-29T00:51:27;101204.47;;;14.13;70.07
49461;BME280;35355;49.198;-0.368;2023-04-29T00:53:53;101200.38;;;14.15;70.21
49461;BME280;35355;49.198;-0.368;2023-04-29T00:56:19;101196.00;;;14.14;70.22
49461;BME280;35355;49.198;-0.368;2023-04-29T00:58:48;101190.25;;;14.16;70.27
49461;BME280;35355;49.198;-0.368;2023-04-29T01:01:15;101185.03;;;14.14;70.29
49461;BME280;35355;49.198;-0.368;2023-04-29T01:03:41;101189.94;;;14.12;70.04
49461;BME280;35355;49.198;-0.368;2023-04-29T01:06:19;101190.78;;;14.08;70.06
49461;BME280;35355;49.198;-0.368;2023-04-29T01:12:05;101192.97;;;14.11;70.21
49461;BME280;35355;49.198;-0.368;2023-04-29T01:14:30;101177.03;;;14.13;70.16
49461;BME280;35355;49.198;-0.368;2023-04-29T01:16:59;101178.41;;;14.15;70.41
49461;BME280;35355;49.198;-0.368;2023-04-29T01:19:47;101177.59;;;14.15;70.10
49461;BME280;35355;49.198;-0.368;2023-04-29T01:22:14;101183.34;;;14.18;70.44
49461;BME280;35355;49.198;-0.368;2023-04-29T01:24:41;101186.09;;;14.18;70.48
49461;BME280;35355;49.198;-0.368;2023-04-29T01:27:26;101182.53;;;14.18;70.08
49461;BME280;35355;49.198;-0.368;2023-04-29T01:33:34;101180.31;;;14.20;69.97
49461;BME280;35355;49.198;-0.368;2023-04-29T01:41:13;101184.19;;;14.19;69.62
49461;BME280;35355;49.198;-0.368;2023-04-29T01:43:39;101185.56;;;14.16;70.17
49461;BME280;35355;49.198;-0.368;2023-04-29T01:46:08;101184.19;;;14.09;70.12
49461;BME280;35355;49.198;-0.368;2023-04-29T01:48:34;101179.25;;;14.06;70.48
49461;BME280;35355;49.198;-0.368;2023-04-29T01:51:00;101177.59;;;14.04;70.78
49461;BME280;35355;49.198;-0.368;2023-04-29T01:53:26;101180.59;;;14.08;70.61
49461;BME280;35355;49.198;-0.368;2023-04-29T01:55:51;101187.22;;;14.07;70.79
49461;BME280;35355;49.198;-0.368;2023-04-29T01:58:16;101185.03;;;14.04;70.54
49461;BME280;35355;49.198;-0.368;2023-04-29T02:00:42;101186.09;;;14.03;70.82
49461;BME280;35355;49.198;-0.368;2023-04-29T02:03:07;101179.81;;;14.02;70.62
49461;BME280;35355;49.198;-0.368;2023-04-29T02:05:32;101191.59;;;14.03;70.91
49461;BME280;35355;49.198;-0.368;2023-04-29T02:07:59;101187.75;;;14.04;70.80
49461;BME280;35355;49.198;-0.368;2023-04-29T02:10:25;101186.09;;;14.03;70.93
49461;BME280;35355;49.198;-0.368;2023-04-29T02:12:50;101193.78;;;14.01;70.87
49461;BME280;35355;49.198;-0.368;2023-04-29T02:15:16;101191.31;;;13.99;70.80
49461;BME280;35355;49.198;-0.368;2023-04-29T02:17:42;101194.63;;;14.01;71.17
49461;BME280;35355;49.198;-0.368;2023-04-29T02:20:07;101188.28;;;14.01;71.06
49461;BME280;35355;49.198;-0.368;2023-04-29T02:22:34;101192.69;;;14.02;71.21
49461;BME280;35355;49.198;-0.368;2023-04-29T02:24:59;101191.03;;;14.01;71.11
49461;BME280;35355;49.198;-0.368;2023-04-29T02:27:25;101191.03;;;14.01;70.94
49461;BME280;35355;49.198;-0.368;2023-04-29T02:29:50;101194.63;;;14.01;71.07
49461;BME280;35355;49.198;-0.368;2023-04-29T02:32:16;101198.75;;;14.04;71.04
49461;BME280;35355;49.198;-0.368;2023-04-29T02:34:44;101194.06;;;14.04;71.11
49461;BME280;35355;49.198;-0.368;2023-04-29T02:37:09;101198.75;;;14.04;71.08
49461;BME280;35355;49.198;-0.368;2023-04-29T02:39:35;101203.38;;;14.03;70.94
49461;BME280;35355;49.198;-0.368;2023-04-29T02:42:00;101204.75;;;14.01;71.13
49461;BME280;35355;49.198;-0.368;2023-04-29T02:44:27;101204.75;;;14.01;71.21
49461;BME280;35355;49.198;-0.368;2023-04-29T02:46:52;101203.41;;;13.98;71.17
49461;BME280;35355;49.198;-0.368;2023-04-29T02:49:17;101212.19;;;13.95;71.26
49461;BME280;35355;49.198;-0.368;2023-04-29T02:51:43;101216.03;;;13.94;71.17
49461;BME280;35355;49.198;-0.368;2023-04-29T02:54:08;101211.88;;;13.92;71.18
49461;BME280;35355;49.198;-0.368;2023-04-29T02:56:35;101200.91;;;13.92;71.11
49461;BME280;35355;49.198;-0.368;2023-04-29T02:59:01;101208.06;;;13.93;71.24
49461;BME280;35355;49.198;-0.368;2023-04-29T03:01:26;101199.56;;;13.94;71.22
49461;BME280;35355;49.198;-0.368;2023-04-29T03:03:51;101201.22;;;13.95;71.42
49461;BME280;35355;49.198;-0.368;2023-04-29T03:06:17;101200.94;;;13.97;71.35
49461;BME280;35355;49.198;-0.368;2023-04-29T03:08:43;101202.56;;;13.98;71.28
49461;BME280;35355;49.198;-0.368;2023-04-29T03:11:08;101206.97;;;13.99;71.19
49461;BME280;35355;49.198;-0.368;2023-04-29T03:13:33;101203.41;;;13.98;71.18
49461;BME280;35355;49.198;-0.368;2023-04-29T03:15:59;101203.69;;;13.97;71.14
49461;BME280;35355;49.198;-0.368;2023-04-29T03:18:25;101207.50;;;13.96;71.11
49461;BME280;35355;49.198;-0.368;2023-04-29T03:20:51;101215.75;;;13.96;71.16
49461;BME280;35355;49.198;-0.368;2023-04-29T03:23:16;101223.97;;;13.96;71.40
49461;BME280;35355;49.198;-0.368;2023-04-29T03:25:41;101235.50;;;13.98;71.37
49461;BME280;35355;49.198;-0.368;2023-04-29T03:28:07;101221.78;;;13.98;71.23
49461;BME280;35355;49.198;-0.368;2023-04-29T03:30:32;101239.34;;;13.97;71.34
49461;BME280;35355;49.198;-0.368;2023-04-29T03:32:58;101234.94;;;13.96;71.28
49461;BME280;35355;49.198;-0.368;2023-04-29T03:35:23;101240.44;;;13.96;71.25
49461;BME280;35355;49.198;-0.368;2023-04-29T03:37:48;101240.19;;;13.92;71.37
49461;BME280;35355;49.198;-0.368;2023-04-29T03:40:14;101240.44;;;13.85;71.47
49461;BME280;35355;49.198;-0.368;2023-04-29T03:42:40;101240.69;;;13.89;71.46
49461;BME280;35355;49.198;-0.368;2023-04-29T03:45:06;101237.94;;;13.89;71.62
49461;BME280;35355;49.198;-0.368;2023-04-29T03:47:31;101236.03;;;13.90;71.41
49461;BME280;35355;49.198;-0.368;2023-04-29T03:49:56;101236.88;;;13.90;71.42
49461;BME280;35355;49.198;-0.368;2023-04-29T03:52:22;101235.47;;;13.88;71.47
49461;BME280;35355;49.198;-0.368;2023-04-29T03:54:47;101240.44;;;13.85;71.60
49461;BME280;35355;49.198;-0.368;2023-04-29T03:57:13;101234.94;;;13.85;71.60
49461;BME280;35355;49.198;-0.368;2023-04-29T03:59:38;101234.13;;;13.85;71.67
49461;BME280;35355;49.198;-0.368;2023-04-29T04:02:04;101230.53;;;13.84;71.60
49461;BME280;35355;49.198;-0.368;2023-04-29T04:04:29;101223.41;;;13.83;71.56
49461;BME280;35355;49.198;-0.368;2023-04-29T04:06:54;101231.66;;;13.83;71.65
49461;BME280;35355;49.198;-0.368;2023-04-29T04:09:20;101232.75;;;13.82;71.61
49461;BME280;35355;49.198;-0.368;2023-04-29T04:11:45;101236.28;;;13.83;71.73
49461;BME280;35355;49.198;-0.368;2023-04-29T04:14:11;101231.09;;;13.81;71.74
49461;BME280;35355;49.198;-0.368;2023-04-29T04:16:37;101219.84;;;13.78;71.89
49461;BME280;35355;49.198;-0.368;2023-04-29T04:19:02;101227.22;;;13.77;71.93
49461;BME280;35355;49.198;-0.368;2023-04-29T04:21:28;101226.13;;;13.78;72.09
49461;BME280;35355;49.198;-0.368;2023-04-29T04:23:54;101221.75;;;13.77;71.74
49461;BME280;35355;49.198;-0.368;2023-04-29T04:26:19;101224.22;;;13.79;72.17
49461;BME280;35355;49.198;-0.368;2023-04-29T04:28:45;101227.78;;;13.79;71.82
49461;BME280;35355;49.198;-0.368;2023-04-29T04:31:11;101237.69;;;13.80;71.73
49461;BME280;35355;49.198;-0.368;2023-04-29T04:33:39;101243.19;;;13.80;71.75
49461;BME280;35355;49.198;-0.368;2023-04-29T04:36:04;101238.50;;;13.81;71.62
49461;BME280;35355;49.198;-0.368;2023-04-29T04:38:30;101248.13;;;13.83;71.82
49461;BME280;35355;49.198;-0.368;2023-04-29T04:40:57;101250.31;;;13.86;71.60
49461;BME280;35355;49.198;-0.368;2023-04-29T04:43:22;101248.69;;;13.91;71.61
49461;BME280;35355;49.198;-0.368;2023-04-29T04:45:48;101250.03;;;13.88;71.60
49461;BME280;35355;49.198;-0.368;2023-04-29T04:48:13;101254.69;;;13.88;71.67
49461;BME280;35355;49.198;-0.368;2023-04-29T04:50:38;101251.41;;;13.85;71.78
49461;BME280;35355;49.198;-0.368;2023-04-29T04:53:04;101258.81;;;13.85;72.05
49461;BME280;35355;49.198;-0.368;2023-04-29T04:55:30;101266.22;;;13.84;71.80
49461;BME280;35355;49.198;-0.368;2023-04-29T04:57:57;101262.91;;;13.82;71.90
49461;BME280;35355;49.198;-0.368;2023-04-29T05:00:23;101271.44;;;13.81;72.13
49461;BME280;35355;49.198;-0.368;2023-04-29T05:02:48;101269.22;;;13.83;72.18
49461;BME280;35355;49.198;-0.368;2023-04-29T05:05:13;101281.59;;;13.85;72.16
49461;BME280;35355;49.198;-0.368;2023-04-29T05:07:38;101278.28;;;13.89;72.02
49461;BME280;35355;49.198;-0.368;2023-04-29T05:10:04;101285.16;;;13.91;71.99
49461;BME280;35355;49.198;-0.368;2023-04-29T05:12:30;101288.19;;;13.95;72.17
49461;BME280;35355;49.198;-0.368;2023-04-29T05:14:56;101287.63;;;13.98;72.14
49461;BME280;35355;49.198;-0.368;2023-04-29T05:17:22;101290.97;;;14.00;72.03
49461;BME280;35355;49.198;-0.368;2023-04-29T05:19:48;101285.47;;;14.00;71.88
49461;BME280;35355;49.198;-0.368;2023-04-29T05:22:13;101291.78;;;14.00;71.84
49461;BME280;35355;49.198;-0.368;2023-04-29T05:24:38;101295.34;;;14.01;72.07
49461;BME280;35355;49.198;-0.368;2023-04-29T05:27:04;101295.34;;;14.01;72.01
49461;BME280;35355;49.198;-0.368;2023-04-29T05:29:29;101293.69;;;14.00;71.84
49461;BME280;35355;49.198;-0.368;2023-04-29T05:31:55;101292.34;;;14.02;72.07
49461;BME280;35355;49.198;-0.368;2023-04-29T05:34:20;101297.25;;;14.00;71.91
49461;BME280;35355;49.198;-0.368;2023-04-29T05:36:46;101294.25;;;13.97;72.11
49461;BME280;35355;49.198;-0.368;2023-04-29T05:39:11;101301.38;;;13.98;71.96
49461;BME280;35355;49.198;-0.368;2023-04-29T05:41:36;101306.31;;;13.96;72.15
49461;BME280;35355;49.198;-0.368;2023-04-29T05:44:02;101311.81;;;13.96;71.99
49461;BME280;35355;49.198;-0.368;2023-04-29T05:46:27;101316.75;;;13.94;71.69
49461;BME280;35355;49.198;-0.368;2023-04-29T05:48:52;101304.66;;;13.95;72.14
49461;BME280;35355;49.198;-0.368;2023-04-29T05:51:18;101316.47;;;13.95;72.18
49461;BME280;35355;49.198;-0.368;2023-04-29T05:53:43;101315.09;;;13.93;72.01
49461;BME280;35355;49.198;-0.368;2023-04-29T05:56:08;101314.00;;;13.94;72.25
49461;BME280;35355;49.198;-0.368;2023-04-29T05:58:34;101309.31;;;13.94;72.29
49461;BME280;35355;49.198;-0.368;2023-04-29T06:01:00;101314.00;;;13.94;72.33
49461;BME280;35355;49.198;-0.368;2023-04-29T06:03:25;101315.63;;;13.95;72.30
49461;BME280;35355;49.198;-0.368;2023-04-29T06:05:51;101314.00;;;13.94;72.14
49461;BME280;35355;49.198;-0.368;2023-04-29T06:08:17;101315.91;;;13.93;72.42
49461;BME280;35355;49.198;-0.368;2023-04-29T06:10:42;101317.84;;;13.93;72.14
49461;BME280;35355;49.198;-0.368;2023-04-29T06:13:08;101321.13;;;13.95;72.33
49461;BME280;35355;49.198;-0.368;2023-04-29T06:15:33;101314.53;;;13.96;72.26
49461;BME280;35355;49.198;-0.368;2023-04-29T06:17:59;101322.22;;;13.99;72.35
49461;BME280;35355;49.198;-0.368;2023-04-29T06:20:24;101326.91;;;13.98;72.25
49461;BME280;35355;49.198;-0.368;2023-04-29T06:22:50;101329.38;;;14.00;72.46
49461;BME280;35355;49.198;-0.368;2023-04-29T06:25:15;101336.50;;;14.01;72.43
49461;BME280;35355;49.198;-0.368;2023-04-29T06:27:41;101336.00;;;14.04;72.44
49461;BME280;35355;49.198;-0.368;2023-04-29T06:30:07;101336.81;;;14.04;72.29
49461;BME280;35355;49.198;-0.368;2023-04-29T06:32:32;101334.06;;;14.04;72.17
49461;BME280;35355;49.198;-0.368;2023-04-29T06:34:58;101340.91;;;14.02;72.32
49461;BME280;35355;49.198;-0.368;2023-04-29T06:37:23;101340.34;;;14.05;72.38
49461;BME280;35355;49.198;-0.368;2023-04-29T06:39:48;101336.00;;;14.04;72.38
49461;BME280;35355;49.198;-0.368;2023-04-29T06:42:14;101336.81;;;14.04;72.44
49461;BME280;35355;49.198;-0.368;2023-04-29T06:44:39;101348.31;;;14.07;72.43
49461;BME280;35355;49.198;-0.368;2023-04-29T06:47:05;101343.94;;;14.06;72.52
49461;BME280;35355;49.198;-0.368;2023-04-29T06:49:30;101345.84;;;14.05;72.49
49461;BME280;35355;49.198;-0.368;2023-04-29T06:51:55;101348.59;;;14.05;72.54
49461;BME280;35355;49.198;-0.368;2023-04-29T06:54:21;101342.00;;;14.01;72.66
49461;BME280;35355;49.198;-0.368;2023-04-29T06:56:46;101346.41;;;14.02;72.54
49461;BME280;35355;49.198;-0.368;2023-04-29T06:59:12;101347.78;;;14.04;72.41
49461;BME280;35355;49.198;-0.368;2023-04-29T07:01:39;101351.91;;;14.07;72.55
49461;BME280;35355;49.198;-0.368;2023-04-29T07:04:04;101353.00;;;14.06;72.37
49461;BME280;35355;49.198;-0.368;2023-04-29T07:06:30;101348.31;;;14.07;72.68
49461;BME280;35355;49.198;-0.368;2023-04-29T07:08:55;101343.94;;;14.11;72.26
49461;BME280;35355;49.198;-0.368;2023-04-29T07:11:21;101354.38;;;14.14;72.24
49461;BME280;35355;49.198;-0.368;2023-04-29T07:13:49;101357.44;;;14.17;72.29
49461;BME280;35355;49.198;-0.368;2023-04-29T07:16:18;101364.00;;;14.16;72.18
49461;BME280;35355;49.198;-0.368;2023-04-29T07:18:46;101367.84;;;14.15;72.14
49461;BME280;35355;49.198;-0.368;2023-04-29T07:21:12;101366.75;;;14.16;72.14
49461;BME280;35355;49.198;-0.368;2023-04-29T07:23:37;101370.63;;;14.20;72.40
49461;BME280;35355;49.198;-0.368;2023-04-29T07:26:13;101369.50;;;14.21;72.28
49461;BME280;35355;49.198;-0.368;2023-04-29T07:28:40;101378.03;;;14.25;72.23
49461;BME280;35355;49.198;-0.368;2023-04-29T07:31:06;101389.84;;;14.26;72.19
49461;BME280;35355;49.198;-0.368;2023-04-29T07:33:32;101389.56;;;14.27;72.07
49461;BME280;35355;49.198;-0.368;2023-04-29T07:35:58;101386.53;;;14.29;72.08
49461;BME280;35355;49.198;-0.368;2023-04-29T07:38:24;101388.75;;;14.32;72.09
49461;BME280;35355;49.198;-0.368;2023-04-29T07:40:49;101392.59;;;14.36;72.02
49461;BME280;35355;49.198;-0.368;2023-04-29T07:43:14;101387.41;;;14.39;72.01
49461;BME280;35355;49.198;-0.368;2023-04-29T07:45:40;101389.88;;;14.41;72.06
49461;BME280;35355;49.198;-0.368;2023-04-29T07:48:05;101383.84;;;14.44;71.90
49461;BME280;35355;49.198;-0.368;2023-04-29T07:50:34;101394.28;;;14.47;71.91
49461;BME280;35355;49.198;-0.368;2023-04-29T07:53:01;101393.75;;;14.50;71.72
49461;BME280;35355;49.198;-0.368;2023-04-29T07:55:26;101395.41;;;14.51;71.80
49461;BME280;35355;49.198;-0.368;2023-04-29T07:57:54;101402.53;;;14.52;71.67
49461;BME280;35355;49.198;-0.368;2023-04-29T08:00:19;101398.69;;;14.53;71.48
49461;BME280;35355;49.198;-0.368;2023-04-29T08:02:45;101406.38;;;14.56;71.54
49461;BME280;35355;49.198;-0.368;2023-04-29T08:05:11;101409.94;;;14.57;71.46
49461;BME280;35355;49.198;-0.368;2023-04-29T08:07:36;101409.69;;;14.59;71.59
49461;BME280;35355;49.198;-0.368;2023-04-29T08:10:02;101403.94;;;14.60;71.53
49461;BME280;35355;49.198;-0.368;2023-04-29T08:12:27;101411.66;;;14.63;71.69
49461;BME280;35355;49.198;-0.368;2023-04-29T08:14:52;101413.84;;;14.66;71.55
49461;BME280;35355;49.198;-0.368;2023-04-29T08:17:18;101416.06;;;14.69;71.51
49461;BME280;35355;49.198;-0.368;2023-04-29T08:19:43;101411.94;;;14.72;71.47
49461;BME280;35355;49.198;-0.368;2023-04-29T08:22:08;101417.44;;;14.72;71.33
49461;BME280;35355;49.198;-0.368;2023-04-29T08:24:36;101416.91;;;14.75;71.56
49461;BME280;35355;49.198;-0.368;2023-04-29T08:27:01;101424.59;;;14.78;71.52
49461;BME280;35355;49.198;-0.368;2023-04-29T08:29:30;101420.47;;;14.81;71.37
49461;BME280;35355;49.198;-0.368;2023-04-29T08:31:56;101432.28;;;14.86;71.28
49461;BME280;35355;49.198;-0.368;2023-04-29T08:34:22;101432.84;;;14.88;71.25
49461;BME280;35355;49.198;-0.368;2023-04-29T08:36:47;101436.69;;;14.87;71.19
49461;BME280;35355;49.198;-0.368;2023-04-29T08:39:13;101432.53;;;14.85;70.89
49461;BME280;35355;49.198;-0.368;2023-04-29T08:41:38;101441.91;;;14.84;70.81
49461;BME280;35355;49.198;-0.368;2023-04-29T08:44:04;101448.22;;;14.84;71.01
49461;BME280;35355;49.198;-0.368;2023-04-29T08:46:30;101449.03;;;14.85;71.04
49461;BME280;35355;49.198;-0.368;2023-04-29T08:48:56;101452.34;;;14.87;71.00
49461;BME280;35355;49.198;-0.368;2023-04-29T08:51:22;101450.97;;;14.89;71.04
49461;BME280;35355;49.198;-0.368;2023-04-29T08:53:48;101449.34;;;14.88;71.01
49461;BME280;35355;49.198;-0.368;2023-04-29T08:56:17;101448.50;;;14.88;70.88
49461;BME280;35355;49.198;-0.368;2023-04-29T08:58:46;101449.34;;;14.88;70.94
49461;BME280;35355;49.198;-0.368;2023-04-29T09:01:12;101450.16;;;14.89;70.81
49461;BME280;35355;49.198;-0.368;2023-04-29T09:06:09;101453.19;;;14.93;70.45
49461;BME280;35355;49.198;-0.368;2023-04-29T09:08:35;101461.97;;;14.95;70.43
49461;BME280;35355;49.198;-0.368;2023-04-29T09:11:02;101467.75;;;14.93;70.31
49461;BME280;35355;49.198;-0.368;2023-04-29T09:13:30;101466.38;;;14.96;70.26
49461;BME280;35355;49.198;-0.368;2023-04-29T09:15:55;101469.13;;;14.96;70.32
49461;BME280;35355;49.198;-0.368;2023-04-29T09:23:37;101478.47;;;15.05;70.00
49461;BME280;35355;49.198;-0.368;2023-04-29T09:26:02;101477.66;;;15.04;69.84
49461;BME280;35355;49.198;-0.368;2023-04-29T09:28:28;101476.81;;;15.04;69.64
49461;BME280;35355;49.198;-0.368;2023-04-29T09:30:53;101488.38;;;15.06;69.64
49461;BME280;35355;49.198;-0.368;2023-04-29T09:33:19;101477.66;;;15.09;69.63
49461;BME280;35355;49.198;-0.368;2023-04-29T09:35:44;101478.50;;;15.15;69.56
49461;BME280;35355;49.198;-0.368;2023-04-29T09:38:15;101487.84;;;15.19;69.39
49461;BME280;35355;49.198;-0.368;2023-04-29T09:40:41;101485.09;;;15.24;69.21
49461;BME280;35355;49.198;-0.368;2023-04-29T09:43:12;101482.91;;;15.26;69.24
49461;BME280;35355;49.198;-0.368;2023-04-29T09:45:45;101486.19;;;15.29;69.25
49461;BME280;35355;49.198;-0.368;2023-04-29T09:48:12;101479.31;;;15.31;68.93
49461;BME280;35355;49.198;-0.368;2023-04-29T09:50:38;101483.97;;;15.31;68.88
49461;BME280;35355;49.198;-0.368;2023-04-29T09:53:05;101485.91;;;15.35;69.00
49461;BME280;35355;49.198;-0.368;2023-04-29T09:55:36;101480.13;;;15.42;68.94
49461;BME280;35355;49.198;-0.368;2023-04-29T09:58:02;101485.63;;;15.52;68.77
49461;BME280;35355;49.198;-0.368;2023-04-29T10:00:31;101473.50;;;15.58;69.09
49461;BME280;35355;49.198;-0.368;2023-04-29T10:02:59;101471.53;;;15.69;68.53
49461;BME280;35355;49.198;-0.368;2023-04-29T10:05:27;101471.28;;;15.76;68.44
49461;BME280;35355;49.198;-0.368;2023-04-29T10:07:54;101471.84;;;15.83;68.20
49461;BME280;35355;49.198;-0.368;2023-04-29T10:10:20;101475.69;;;15.87;68.16
49461;BME280;35355;49.198;-0.368;2023-04-29T10:12:47;101481.16;;;15.92;67.70
49461;BME280;35355;49.198;-0.368;2023-04-29T10:15:22;101476.22;;;15.94;67.82
49461;BME280;35355;49.198;-0.368;2023-04-29T10:18:13;101473.16;;;16.01;67.98
49461;BME280;35355;49.198;-0.368;2023-04-29T10:20:47;101474.78;;;16.07;67.35
49461;BME280;35355;49.198;-0.368;2023-04-29T10:23:13;101483.28;;;16.16;67.03
49461;BME280;35355;49.198;-0.368;2023-04-29T10:25:40;101479.13;;;16.24;66.92
49461;BME280;35355;49.198;-0.368;2023-04-29T10:28:09;101484.06;;;16.37;66.90
49461;BME280;35355;49.198;-0.368;2023-04-29T10:30:39;101482.31;;;16.52;66.57
49461;BME280;35355;49.198;-0.368;2023-04-29T10:33:07;101483.03;;;16.67;66.57
49461;BME280;35355;49.198;-0.368;2023-04-29T10:35:35;101486.81;;;16.82;65.97
49461;BME280;35355;49.198;-0.368;2023-04-29T10:38:10;101487.38;;;16.89;66.03
49461;BME280;35355;49.198;-0.368;2023-04-29T10:40:44;101485.69;;;16.93;65.66
49461;BME280;35355;49.198;-0.368;2023-04-29T10:43:11;101487.81;;;17.01;65.17
49461;BME280;35355;49.198;-0.368;2023-04-29T10:45:36;101478.09;;;17.09;65.00
49461;BME280;35355;49.198;-0.368;2023-04-29T10:50:39;101492.03;;;17.28;65.04
49461;BME280;35355;49.198;-0.368;2023-04-29T10:53:07;101486.41;;;17.39;64.03
49461;BME280;35355;49.198;-0.368;2023-04-29T10:55:37;101488.56;;;17.47;64.17
49461;BME280;35355;49.198;-0.368;2023-04-29T10:58:03;101495.16;;;17.51;63.21
49461;BME280;35355;49.198;-0.368;2023-04-29T11:00:31;101493.22;;;17.51;62.96
49461;BME280;35355;49.198;-0.368;2023-04-29T11:02:58;101493.44;;;17.55;63.19
49461;BME280;35355;49.198;-0.368;2023-04-29T11:05:35;101490.63;;;17.60;63.75
49461;BME280;35355;49.198;-0.368;2023-04-29T11:10:40;101489.41;;;17.71;62.79
49461;BME280;35355;49.198;-0.368;2023-04-29T11:13:23;101491.84;;;17.78;63.42
49461;BME280;35355;49.198;-0.368;2023-04-29T11:15:53;101487.69;;;17.81;62.25
49461;BME280;35355;49.198;-0.368;2023-04-29T11:18:18;101495.41;;;17.79;61.94
49461;BME280;35355;49.198;-0.368;2023-04-29T11:23:34;101487.72;;;17.76;62.29
49461;BME280;35355;49.198;-0.368;2023-04-29T11:26:00;101479.44;;;17.76;61.79
49461;BME280;35355;49.198;-0.368;2023-04-29T11:28:30;101488.31;;;17.73;62.30
49461;BME280;35355;49.198;-0.368;2023-04-29T11:30:56;101483.31;;;17.75;62.25
49461;BME280;35355;49.198;-0.368;2023-04-29T11:33:26;101487.19;;;17.74;62.28
49461;BME280;35355;49.198;-0.368;2023-04-29T11:35:53;101481.41;;;17.70;61.83
49461;BME280;35355;49.198;-0.368;2023-04-29T11:38:28;101477.56;;;17.71;62.76
49461;BME280;35355;49.198;-0.368;2023-04-29T11:40:58;101481.09;;;17.77;62.78
49461;BME280;35355;49.198;-0.368;2023-04-29T11:43:24;101473.88;;;17.81;62.59
49461;BME280;35355;49.198;-0.368;2023-04-29T11:45:51;101476.25;;;17.87;62.72
49461;BME280;35355;49.198;-0.368;2023-04-29T11:48:21;101463.84;;;17.90;62.96
49461;BME280;35355;49.198;-0.368;2023-04-29T11:50:49;101464.91;;;17.94;62.76
49461;BME280;35355;49.198;-0.368;2023-04-29T11:53:15;101457.16;;;17.96;62.11
49461;BME280;35355;49.198;-0.368;2023-04-29T11:55:44;101472.09;;;17.95;61.82
49461;BME280;35355;49.198;-0.368;2023-04-29T11:58:09;101459.97;;;17.91;61.95
49461;BME280;35355;49.198;-0.368;2023-04-29T12:00:35;101459.19;;;17.85;62.22
49461;BME280;35355;49.198;-0.368;2023-04-29T12:03:01;101449.81;;;17.81;61.95
49461;BME280;35355;49.198;-0.368;2023-04-29T12:05:31;101452.88;;;17.80;61.59
49461;BME280;35355;49.198;-0.368;2023-04-29T12:07:56;101461.75;;;17.77;61.57
49461;BME280;35355;49.198;-0.368;2023-04-29T12:10:22;101462.06;;;17.75;61.66
49461;BME280;35355;49.198;-0.368;2023-04-29T12:12:47;101461.25;;;17.75;61.75
49461;BME280;35355;49.198;-0.368;2023-04-29T12:15:13;101458.19;;;17.76;61.87
49461;BME280;35355;49.198;-0.368;2023-04-29T12:17:39;101457.88;;;17.78;61.62
49461;BME280;35355;49.198;-0.368;2023-04-29T12:20:08;101459.00;;;17.77;61.38
49461;BME280;35355;49.198;-0.368;2023-04-29T12:22:34;101459.59;;;17.74;61.23
49461;BME280;35355;49.198;-0.368;2023-04-29T12:25:03;101460.09;;;17.76;61.54
49461;BME280;35355;49.198;-0.368;2023-04-29T12:27:29;101463.94;;;17.80;61.05
49461;BME280;35355;49.198;-0.368;2023-04-29T12:29:56;101461.13;;;17.85;60.88
49461;BME280;35355;49.198;-0.368;2023-04-29T12:32:22;101465.22;;;17.87;60.52
49461;BME280;35355;49.198;-0.368;2023-04-29T12:34:50;101455.81;;;17.88;60.63
49461;BME280;35355;49.198;-0.368;2023-04-29T12:37:16;101454.69;;;17.95;60.57
49461;BME280;35355;49.198;-0.368;2023-04-29T12:39:42;101454.94;;;17.98;60.65
49461;BME280;35355;49.198;-0.368;2023-04-29T12:42:14;101458.78;;;17.97;61.04
49461;BME280;35355;49.198;-0.368;2023-04-29T12:44:40;101454.94;;;17.98;60.80
49461;BME280;35355;49.198;-0.368;2023-04-29T12:47:09;101444.50;;;17.90;60.62
49461;BME280;35355;49.198;-0.368;2023-04-29T12:49:36;101445.13;;;17.82;60.62
49461;BME280;35355;49.198;-0.368;2023-04-29T12:52:02;101442.44;;;17.77;60.97
49461;BME280;35355;49.198;-0.368;2023-04-29T12:54:28;101437.50;;;17.74;61.14
49461;BME280;35355;49.198;-0.368;2023-04-29T12:56:54;101444.66;;;17.75;61.07
49461;BME280;35355;49.198;-0.368;2023-04-29T12:59:19;101444.97;;;17.73;61.40
49461;BME280;35355;49.198;-0.368;2023-04-29T13:01:45;101445.22;;;17.71;61.48
49461;BME280;35355;49.198;-0.368;2023-04-29T13:04:10;101438.66;;;17.67;61.48